Portada
METAR-TAF:

METAR-TAF

Aeroports :

Campbeltown, Escòcia

latitud: 55-26-14N, longitud: 005-41-11W, altitud: 13 m

Observació

L'informe es va fer fa 9 hores i 59 minuts, a les 17:20 UTC
Vent 22 kt del Sud
Temperatura 16°C
Humitat 94%
Pressió 1008 hPa
Visibilitat 10 km o més
Núvols disperses a una alçada de 700 ft

METAR: EGEC 211720Z 17022KT 9999 SCT007 16/15 Q1008

Hora: 04:19 (03:19 UTC)

Pronòstic

L'informe es va fer fa 12 hores i 22 minuts, a les 14:57 UTC
Pronòstic vàlid del 21 a les 16 UTC al 21 a les 18 UTC
Vent 12 kt del Sud/Sud-Est
Visibilitat 10 km o més
Escasses núvols a una alçada de 1200 ft
Núvols disperses a una alçada de 3000 ft
Temporalment
l' 21 a les 16 UTC al 21 a les 18 UTC
Vent 17 kt del Sud/Sud-Est amb ràfegues de 27 kt
Visibilitat: 7000 m
Cel ennuvolat a una alçada de 1200 ft
pluja

TAF: EGEC 211457Z 2116/2118 15012KT 9999 FEW012 SCT030 TEMPO 2116/2118 16017G27KT 7000 RA BKN012

Observacions i pronòstics meteorològics de més de 4000 aeroports (METAR i TAF).

Les estacions disponibles són els punts grocs i vermells al mapa.

Posi el ratolí al punt desitjat per veure el nom de l'estació.

Feu clic per veure les observacions i els pronòstics meteorològics.

Per canviar el mapa: feu clic els botons verds amb una creu de color negre per apropar; al botó verd amb un guió per allunyar la imatge; o en les fletxes verdes per a mapes adjacents.


METAR-TAF: